.
WxDataArchive / Data Records for 2009-07-12
2009-07-11 July 2009 2009-07-13

Data Records for Sunday, 12 July 2009

Time	Temp	Chill	HIndex	Humid	Dewpt	 Wind 	HiWind	WindDir	Rain 	Barom 
-----	----	-----	------	-----	-----	------	------	-------	-----	----- 
00:00	64.2	64.2	64.2	78	57.2	0	0	---	0.00	30.064 
00:05	64.2	64.2	64.2	78	57.2	0	0	---	0.00	30.064 
00:10	64.0	64.0	64.0	79	57.4	0	0	---	0.00	30.064 
00:15	63.9	63.9	63.9	79	57.3	0	0	---	0.00	30.065 
00:20	63.9	63.9	63.9	79	57.3	0	0	---	0.00	30.065 
00:25	63.7	63.7	63.7	80	57.4	0	0	---	0.00	30.065 
00:30	63.4	63.4	63.4	80	57.1	0	0	---	0.00	30.064 
00:35	63.2	63.2	63.2	81	57.3	0	0	---	0.00	30.064 
00:40	63.1	63.1	63.1	81	57.2	0	0	---	0.00	30.064 
00:45	62.9	62.9	62.9	82	57.3	0	0	---	0.00	30.068 
00:50	62.7	62.7	62.7	83	57.5	0	0	---	0.00	30.068 
00:55	62.6	62.6	62.6	83	57.4	0	0	---	0.00	30.068 
01:00	62.4	62.4	62.4	83	57.2	0	0	---	0.00	30.067 
01:05	62.3	62.3	62.3	84	57.4	0	0	---	0.00	30.067 
01:10	62.1	62.1	62.1	84	57.2	0	0	---	0.00	30.067 
01:15	62.0	62.0	62.0	85	57.4	0	0	---	0.00	30.064 
01:20	61.8	61.8	61.8	85	57.2	0	0	---	0.00	30.064 
01:25	61.8	61.8	61.8	86	57.6	0	0	---	0.00	30.064 
01:30	61.6	61.6	61.6	86	57.4	0	0	---	0.00	30.064 
01:35	61.6	61.6	61.6	87	57.7	0	0	---	0.00	30.064 
01:40	61.6	61.6	61.6	87	57.7	0	0	---	0.00	30.064 
01:45	61.6	61.6	61.6	87	57.7	0	0	---	0.00	30.070 
01:50	61.6	61.6	61.6	88	58.0	0	0	---	0.00	30.070 
01:55	61.6	61.6	61.6	88	58.0	0	0	---	0.00	30.070 
02:00	61.8	61.8	61.8	88	58.2	0	0	---	0.00	30.068 
02:05	61.8	61.8	61.8	88	58.2	0	0	---	0.00	30.068 
02:10	62.0	62.0	62.0	88	58.4	0	0	---	0.00	30.068 
02:15	62.0	62.0	62.0	88	58.4	0	0	---	0.00	30.066 
02:20	62.0	62.0	62.0	88	58.4	0	0	---	0.00	30.066 
02:25	62.0	62.0	62.0	89	58.7	0	0	---	0.00	30.066 
02:30	62.1	62.1	62.1	89	58.8	0	0	---	0.00	30.064 
02:35	62.1	62.1	62.1	89	58.8	0	0	---	0.00	30.064 
02:40	62.0	62.0	62.0	88	58.4	0	0	---	0.00	30.064 
02:45	62.0	62.0	62.0	88	58.4	0	0	---	0.00	30.063 
02:50	62.0	62.0	62.0	88	58.4	0	0	---	0.00	30.063 
02:55	62.0	62.0	62.0	88	58.4	0	0	---	0.00	30.063 
03:00	61.8	61.8	61.8	88	58.2	0	0	---	0.00	30.057 
03:05	61.8	61.8	61.8	88	58.2	0	0	---	0.00	30.057 
03:10	61.6	61.6	61.6	89	58.3	0	0	---	0.00	30.057 
03:15	61.5	61.5	61.5	89	58.2	0	0	---	0.00	30.057 
03:20	61.5	61.5	61.5	89	58.2	0	0	---	0.00	30.057 
03:25	61.3	61.3	61.3	89	58.0	0	0	---	0.00	30.057 
03:30	61.3	61.3	61.3	89	58.0	0	0	---	0.00	30.047 
03:35	61.3	61.3	61.3	90	58.3	0	0	---	0.00	30.047 
03:40	61.2	61.2	61.2	90	58.2	0	0	---	0.00	30.047 
03:45	61.0	61.0	61.0	90	58.0	0	0	---	0.00	30.044 
03:50	60.9	60.9	60.9	90	57.9	0	0	---	0.00	30.044 
03:55	60.7	60.7	60.7	90	57.7	0	0	---	0.00	30.044 
04:00	60.5	60.5	60.5	91	57.9	0	0	---	0.00	30.044 
04:05	60.5	60.5	60.5	91	57.9	0	0	---	0.00	30.044 
04:10	60.4	60.4	60.4	91	57.8	0	0	---	0.00	30.044 
04:15	60.2	60.2	60.2	91	57.6	0	0	---	0.00	30.047 
04:20	60.1	60.1	60.1	92	57.8	0	0	---	0.00	30.047 
04:25	59.9	59.9	59.9	92	57.6	0	0	---	0.00	30.047 
04:30	59.9	59.9	59.9	92	57.6	0	0	---	0.00	30.051 
04:35	59.8	59.8	59.8	92	57.5	0	0	---	0.00	30.051 
04:40	59.8	59.8	59.8	92	57.5	0	0	---	0.00	30.051 
04:45	59.8	59.8	59.8	92	57.5	0	0	---	0.00	30.056 
04:50	59.8	59.8	59.8	92	57.5	0	0	---	0.00	30.056 
04:55	59.6	59.6	59.6	92	57.3	0	0	---	0.00	30.056 
05:00	59.6	59.6	59.6	93	57.6	0	0	---	0.00	30.061 
05:05	59.6	59.6	59.6	93	57.6	0	0	---	0.00	30.061 
05:10	59.6	59.6	59.6	93	57.6	0	0	---	0.00	30.061 
05:15	59.6	59.6	59.6	93	57.6	0	0	---	0.00	30.063 
05:20	59.6	59.6	59.6	93	57.6	0	0	---	0.00	30.063 
05:25	59.8	59.8	59.8	93	57.8	0	0	---	0.00	30.063 
05:30	59.8	59.8	59.8	93	57.8	0	0	---	0.00	30.062 
05:35	59.8	59.8	59.8	94	58.1	0	0	---	0.00	30.062 
05:40	59.8	59.8	59.8	94	58.1	0	0	---	0.00	30.062 
05:45	59.8	59.8	59.8	94	58.1	0	0	---	0.00	30.062 
05:50	59.8	59.8	59.8	94	58.1	0	0	---	0.00	30.062 
05:55	59.8	59.8	59.8	94	58.1	0	0	---	0.00	30.062 
06:00	59.8	59.8	59.8	94	58.1	0	0	---	0.00	30.060 
06:05	59.6	59.6	59.6	94	57.9	0	0	---	0.00	30.060 
06:10	59.6	59.6	59.6	94	57.9	0	0	---	0.00	30.060 
06:15	59.6	59.6	59.6	94	57.9	0	0	---	0.00	30.065 
06:20	59.5	59.5	59.5	94	57.8	0	0	---	0.00	30.065 
06:25	59.5	59.5	59.5	94	57.8	0	0	---	0.00	30.065 
06:30	59.5	59.5	59.5	94	57.8	0	0	---	0.00	30.067 
06:35	59.3	59.3	59.3	94	57.6	0	0	---	0.00	30.067 
06:40	59.5	59.5	59.5	94	57.8	0	0	---	0.00	30.067 
06:45	59.6	59.6	59.6	94	57.9	0	0	---	0.00	30.064 
06:50	59.8	59.8	59.8	94	58.1	0	0	---	0.00	30.064 
06:55	59.8	59.8	59.8	94	58.1	0	0	---	0.00	30.064 
07:00	59.8	59.8	59.8	94	58.1	0	0	---	0.00	30.061 
07:05	59.8	59.8	59.8	94	58.1	0	0	---	0.00	30.061 
07:10	59.9	59.9	59.9	95	58.5	0	0	---	0.00	30.061 
07:15	60.1	60.1	60.1	95	58.7	0	0	---	0.00	30.060 
07:20	60.4	60.4	60.4	95	59.0	0	0	---	0.00	30.060 
07:25	60.5	60.5	60.5	95	59.1	0	0	---	0.00	30.060 
07:30	60.9	60.9	60.9	95	59.5	0	0	---	0.00	30.063 
07:35	61.2	61.2	61.2	95	59.8	0	0	---	0.00	30.063 
07:40	61.6	61.6	61.6	94	59.9	0	0	---	0.00	30.063 
07:45	62.0	62.0	62.0	94	60.2	0	0	---	0.00	30.063 
07:50	62.3	62.3	62.3	93	60.2	0	0	---	0.00	30.063 
07:55	62.9	62.9	62.9	92	60.5	0	0	---	0.00	30.063 
08:00	63.4	63.4	63.4	90	60.4	0	0	---	0.00	30.063 
08:05	64.0	64.0	64.0	88	60.4	0	0	---	0.00	30.063 
08:10	64.7	64.7	64.7	86	60.4	0	0	---	0.00	30.063 
08:15	65.2	65.2	65.2	85	60.6	0	0	---	0.00	30.067 
08:20	65.8	65.8	65.8	83	60.5	0	0	---	0.00	30.067 
08:25	66.4	66.4	66.4	79	59.7	0	0	---	0.00	30.067 
08:30	67.1	67.1	67.1	76	59.3	0	0	---	0.00	30.066 
08:35	67.9	67.9	67.9	76	60.0	0	0	---	0.00	30.066 
08:40	68.9	68.9	68.9	73	59.9	0	0	---	0.00	30.066 
08:45	69.4	69.4	69.4	70	59.2	0	1	315	0.00	30.060 
08:50	69.8	69.8	69.8	69	59.2	0	1	315	0.00	30.060 
08:55	69.9	69.9	69.9	69	59.3	0	1	315	0.00	30.060 
09:00	70.6	70.6	70.6	69	59.9	0	3	315	0.00	30.059 
09:05	71.1	71.1	71.1	70	60.8	0	1	315	0.00	30.059 
09:10	71.8	71.8	71.8	66	59.8	0	0	---	0.00	30.059 
09:15	72.3	72.3	72.3	65	59.9	0	0	---	0.00	30.051 
09:20	73.0	73.0	73.0	61	58.7	0	1	315	0.00	30.051 
09:25	73.7	73.7	73.7	61	59.4	0	0	---	0.00	30.051 
09:30	74.4	74.4	74.4	58	58.6	0	1	315	0.00	30.048 
09:35	74.7	74.7	74.7	57	58.4	0	1	315	0.00	30.048 
09:40	74.4	74.4	74.4	59	59.1	0	1	315	0.00	30.048 
09:45	74.2	74.2	74.2	56	57.5	0	1	315	0.00	30.051 
09:50	74.0	74.0	74.0	58	58.3	0	1	315	0.00	30.051 
09:55	74.4	74.4	74.4	60	59.6	0	1	315	0.00	30.051 
10:00	74.9	74.9	74.9	59	59.6	0	1	315	0.00	30.045 
10:05	75.4	75.4	77.7	58	59.6	0	2	315	0.00	30.045 
10:10	75.3	75.3	77.7	56	58.5	0	2	315	0.00	30.045 
10:15	75.4	75.4	77.7	58	59.6	0	1	315	0.00	30.051 
10:20	75.6	75.6	77.8	55	58.3	0	2	315	0.00	30.051 
10:25	75.8	75.8	78.0	53	57.4	1	2	315	0.00	30.051 
10:30	76.0	76.0	78.1	54	58.1	1	3	315	0.00	30.053 
10:35	76.1	76.1	78.1	50	56.1	1	4	315	0.00	30.053 
10:40	76.3	76.3	78.2	51	56.8	0	2	270	0.00	30.053 
10:45	76.0	76.0	78.1	50	56.0	1	3	292	0.00	30.064 
10:50	76.1	76.1	78.1	51	56.6	1	3	292	0.00	30.064 
10:55	76.3	76.3	78.2	52	57.4	0	2	315	0.00	30.064 
11:00	76.7	76.7	78.5	54	58.8	1	3	315	0.00	30.061 
11:05	76.7	76.7	78.3	46	54.3	1	3	248	0.00	30.061 
11:10	77.0	77.0	78.5	48	55.8	1	4	270	0.00	30.061 
11:15	76.8	76.8	78.4	47	55.0	2	4	292	0.00	30.066 
11:20	76.7	76.7	78.3	46	54.3	1	4	315	0.00	30.066 
11:25	76.8	76.8	78.5	51	57.3	1	3	270	0.00	30.066 
11:30	77.4	77.4	78.7	46	55.0	1	5	270	0.00	30.065 
11:35	77.4	77.4	78.6	43	53.1	1	3	270	0.00	30.065 
11:40	77.6	77.6	78.6	41	52.0	2	3	292	0.00	30.065 
11:45	77.7	77.7	78.3	36	48.6	2	3	270	0.00	30.066 
11:50	77.7	77.7	78.5	39	50.7	2	5	292	0.00	30.066 
11:55	77.7	77.7	78.5	39	50.7	2	3	292	0.00	30.066 
12:00	77.7	77.7	78.5	38	50.0	2	4	315	0.00	30.066 
12:05	77.7	77.7	78.0	31	44.6	2	5	270	0.00	30.066 
12:10	77.9	77.9	78.4	36	48.8	2	6	315	0.00	30.066 
12:15	77.9	77.9	78.3	34	47.2	2	5	270	0.00	30.066 
12:20	78.3	78.3	78.5	33	46.8	2	6	270	0.00	30.066 
12:25	78.1	78.1	78.2	30	44.1	3	5	270	0.00	30.066 
12:30	78.3	78.3	78.5	33	46.8	2	4	270	0.00	30.068 
12:35	78.3	78.3	78.2	29	43.4	3	5	270	0.00	30.068 
12:40	78.1	78.1	78.0	27	41.4	3	6	315	0.00	30.068 
12:45	78.5	78.5	78.6	34	47.8	2	4	315	0.00	30.067 
12:50	78.6	78.6	78.5	31	45.4	2	6	292	0.00	30.067 
12:55	78.6	78.6	78.4	30	44.6	2	5	315	0.00	30.067 
13:00	78.3	78.3	78.1	28	42.5	3	5	270	0.00	30.067 
13:05	78.1	78.1	78.1	29	43.2	2	5	292	0.00	30.067 
13:10	78.3	78.3	78.3	30	44.3	2	4	270	0.00	30.067 
13:15	78.6	78.6	78.4	30	44.6	2	5	292	0.00	30.063 
13:20	78.6	78.6	78.4	30	44.6	2	4	270	0.00	30.063 
13:25	78.6	78.6	78.3	28	42.7	2	4	315	0.00	30.063 
13:30	78.6	78.6	78.2	27	41.8	3	6	270	0.00	30.065 
13:35	78.6	78.6	78.2	27	41.8	2	5	315	0.00	30.065 
13:40	78.6	78.6	78.2	27	41.8	2	4	270	0.00	30.065 
13:45	78.3	78.3	78.0	26	40.6	2	4	270	0.00	30.063 
13:50	78.3	78.3	77.9	24	38.5	3	6	270	0.00	30.063 
13:55	78.3	78.3	78.1	28	42.5	2	4	292	0.00	30.063 
14:00	78.6	78.6	78.3	28	42.7	2	6	292	0.00	30.060 
14:05	78.6	78.6	78.2	27	41.8	3	6	270	0.00	30.060 
14:10	78.3	78.3	78.1	28	42.5	3	6	270	0.00	30.060 
14:15	78.5	78.5	78.2	27	41.7	2	4	292	0.00	30.056 
14:20	78.3	78.3	78.1	27	41.5	2	6	270	0.00	30.056 
14:25	78.5	78.5	78.2	27	41.7	3	6	270	0.00	30.056 
14:30	78.6	78.6	78.3	28	42.7	2	6	270	0.00	30.052 
14:35	79.0	79.0	78.7	31	45.8	1	4	270	0.00	30.052 
14:40	79.0	79.0	78.6	30	44.9	2	6	270	0.00	30.052 
14:45	79.0	79.0	78.5	28	43.1	1	4	292	0.00	30.046 
14:50	78.8	78.8	78.3	27	42.0	3	5	292	0.00	30.046 
14:55	79.0	79.0	78.5	28	43.1	3	6	270	0.00	30.046 
15:00	79.0	79.0	78.4	27	42.1	2	5	292	0.00	30.051 
15:05	79.0	79.0	78.5	28	43.1	3	5	270	0.00	30.051 
15:10	79.2	79.2	78.5	27	42.3	1	4	315	0.00	30.051 
15:15	79.4	79.4	78.7	28	43.4	2	6	270	0.00	30.049 
15:20	79.4	79.4	78.9	31	46.1	1	4	292	0.00	30.049 
15:25	79.6	79.6	78.8	28	43.6	2	4	292	0.00	30.049 
15:30	79.6	79.6	79.0	30	45.4	2	6	270	0.00	30.050 
15:35	79.9	79.9	79.1	29	44.8	1	4	270	0.00	30.050 
15:40	80.3	80.3	79.2	28	44.2	1	4	315	0.00	30.050 
15:45	80.3	80.3	79.2	28	44.2	1	5	270	0.00	30.049 
15:50	80.1	80.1	79.1	28	44.0	1	3	292	0.00	30.049 
15:55	79.9	79.9	78.8	25	40.9	2	4	292	0.00	30.049 
16:00	79.8	79.8	78.8	26	41.8	2	5	315	0.00	30.043 
16:05	79.8	79.8	79.0	29	44.7	1	3	270	0.00	30.043 
16:10	79.6	79.6	78.8	27	42.7	1	5	270	0.00	30.043 
16:15	79.8	79.8	78.9	27	42.8	1	4	315	0.00	30.037 
16:20	79.9	79.9	79.0	28	43.9	1	6	270	0.00	30.037 
16:25	79.9	79.9	79.3	32	47.4	1	4	315	0.00	30.037 
16:30	79.9	79.9	78.9	27	42.9	1	5	315	0.00	30.036 
16:35	79.8	79.8	79.1	30	45.6	1	4	315	0.00	30.036 
16:40	79.8	79.8	78.9	28	43.8	1	4	315	0.00	30.036 
16:45	79.4	79.4	78.6	26	41.5	3	6	270	0.00	30.036 
16:50	79.0	79.0	78.4	27	42.1	2	4	270	0.00	30.036 
16:55	79.2	79.2	78.5	27	42.3	1	6	315	0.00	30.036 
17:00	79.0	79.0	78.6	29	44.0	1	4	292	0.00	30.036 
17:05	78.8	78.8	78.5	29	43.8	1	3	270	0.00	30.036 
17:10	78.6	78.6	78.5	31	45.4	1	3	292	0.00	30.036 
17:15	79.0	79.0	78.5	28	43.1	1	3	292	0.00	30.039 
17:20	79.4	79.4	78.8	29	44.3	1	3	338	0.00	30.039 
17:25	79.2	79.2	78.6	28	43.3	1	4	315	0.00	30.039 
17:30	78.3	78.3	78.2	29	43.4	1	4	292	0.00	30.037 
17:35	78.3	78.3	78.3	30	44.3	1	5	270	0.00	30.037 
17:40	78.6	78.6	78.5	31	45.4	0	3	270	0.00	30.037 
17:45	78.5	78.5	78.5	32	46.2	2	3	270	0.00	30.037 
17:50	78.5	78.5	78.4	30	44.5	2	5	270	0.00	30.037 
17:55	78.3	78.3	78.3	31	45.2	2	6	270	0.00	30.037 
18:00	78.3	78.3	78.2	29	43.4	2	7	315	0.00	30.036 
18:05	78.1	78.1	78.2	31	45.0	1	4	292	0.00	30.036 
18:10	77.9	77.9	78.1	31	44.8	1	3	315	0.00	30.036 
18:15	77.9	77.9	78.3	33	46.5	1	5	270	0.00	30.027 
18:20	77.9	77.9	78.1	31	44.8	2	4	292	0.00	30.027 
18:25	77.9	77.9	78.1	31	44.8	1	4	315	0.00	30.027 
18:30	77.6	77.6	78.1	32	45.4	1	4	315	0.00	30.021 
18:35	77.0	77.0	77.8	32	44.9	2	5	270	0.00	30.021 
18:40	76.8	76.8	77.7	32	44.7	1	3	315	0.00	30.021 
18:45	76.7	76.7	77.9	35	47.0	0	2	315	0.00	30.022 
18:50	76.7	76.7	77.9	35	47.0	1	3	315	0.00	30.022 
18:55	76.5	76.5	77.8	36	47.5	1	4	270	0.00	30.022 
19:00	76.3	76.3	77.7	35	46.6	1	3	292	0.00	30.023 
19:05	76.1	76.1	77.6	34	45.7	1	4	270	0.00	30.023 
19:10	76.0	76.0	77.6	35	46.4	1	3	270	0.00	30.023 
19:15	75.8	75.8	77.5	35	46.2	1	3	270	0.00	30.022 
19:20	75.6	75.6	77.4	34	45.2	1	4	270	0.00	30.022 
19:25	75.4	75.4	77.4	35	45.8	1	2	270	0.00	30.022 
19:30	75.3	75.3	77.4	35	45.7	1	4	270	0.00	30.025 
19:35	75.3	75.3	77.4	36	46.5	1	2	270	0.00	30.025 
19:40	75.3	75.3	77.4	36	46.5	0	2	292	0.00	30.025 
19:45	75.1	75.1	77.3	36	46.3	0	2	292	0.00	30.026 
19:50	74.9	74.9	74.9	38	47.6	0	2	292	0.00	30.026 
19:55	74.9	74.9	74.9	37	46.9	0	1	315	0.00	30.026 
20:00	74.9	74.9	74.9	36	46.1	0	1	315	0.00	30.024 
20:05	75.1	75.1	77.4	37	47.0	0	3	292	0.00	30.024 
20:10	75.1	75.1	77.4	38	47.7	0	1	292	0.00	30.024 
20:15	74.9	74.9	74.9	38	47.6	0	1	292	0.00	30.018 
20:20	74.7	74.7	74.7	38	47.4	0	2	292	0.00	30.018 
20:25	74.6	74.6	74.6	38	47.3	1	3	292	0.00	30.018 
20:30	74.2	74.2	74.2	38	46.9	1	2	292	0.00	30.022 
20:35	74.0	74.0	74.0	39	47.5	0	1	292	0.00	30.022 
20:40	73.7	73.7	73.7	40	47.9	0	2	292	0.00	30.022 
20:45	73.3	73.3	73.3	40	47.5	0	2	292	0.00	30.020 
20:50	73.0	73.0	73.0	40	47.2	0	1	292	0.00	30.020 
20:55	72.8	72.8	72.8	41	47.7	0	1	292	0.00	30.020 
21:00	72.5	72.5	72.5	41	47.4	0	1	292	0.00	30.018 
21:05	72.3	72.3	72.3	41	47.3	0	1	292	0.00	30.018 
21:10	72.1	72.1	72.1	42	47.7	0	1	292	0.00	30.018 
21:15	71.8	71.8	71.8	43	48.1	0	1	292	0.00	30.014 
21:20	71.5	71.5	71.5	43	47.8	0	1	292	0.00	30.014 
21:25	71.3	71.3	71.3	44	48.2	0	1	292	0.00	30.014 
21:30	70.9	70.9	70.9	45	48.5	0	1	292	0.00	30.014 
21:35	70.6	70.6	70.6	45	48.2	0	1	292	0.00	30.014 
21:40	70.4	70.4	70.4	46	48.6	0	0	---	0.00	30.014 
21:45	70.1	70.1	70.1	47	48.9	0	0	---	0.00	30.016 
21:50	69.6	69.6	69.6	49	49.6	0	0	---	0.00	30.016 
21:55	69.3	69.3	69.3	49	49.3	0	0	---	0.00	30.016 
22:00	68.9	68.9	68.9	50	49.5	0	0	---	0.00	30.018 
22:05	68.6	68.6	68.6	51	49.7	0	0	---	0.00	30.018 
22:10	68.3	68.3	68.3	51	49.5	0	0	---	0.00	30.018 
22:15	68.3	68.3	68.3	51	49.5	0	0	---	0.00	30.019 
22:20	68.3	68.3	68.3	50	48.9	0	1	292	0.00	30.019 
22:25	68.3	68.3	68.3	50	48.9	0	1	292	0.00	30.019 
22:30	68.1	68.1	68.1	50	48.7	0	0	---	0.00	30.026 
22:35	68.1	68.1	68.1	50	48.7	0	0	---	0.00	30.026 
22:40	67.9	67.9	67.9	51	49.1	0	1	292	0.00	30.026 
22:45	67.8	67.8	67.8	52	49.5	0	0	---	0.00	30.025 
22:50	67.4	67.4	67.4	52	49.2	0	0	---	0.00	30.025 
22:55	67.3	67.3	67.3	52	49.1	0	0	---	0.00	30.025 
23:00	67.1	67.1	67.1	52	48.9	0	0	---	0.00	30.031 
23:05	66.9	66.9	66.9	53	49.2	0	0	---	0.00	30.031 
23:10	66.6	66.6	66.6	54	49.4	0	0	---	0.00	30.031 
23:15	66.3	66.3	66.3	54	49.1	0	0	---	0.00	30.034 
23:20	66.0	66.0	66.0	55	49.4	0	0	---	0.00	30.034 
23:25	65.6	65.6	65.6	56	49.5	0	0	---	0.00	30.034 
23:30	65.6	65.6	65.6	57	49.9	0	0	---	0.00	30.037 
23:35	65.3	65.3	65.3	56	49.2	0	0	---	0.00	30.037 
23:40	65.2	65.2	65.2	57	49.6	0	0	---	0.00	30.037 
23:45	64.8	64.8	64.8	58	49.7	0	0	---	0.00	30.042 
23:50	64.5	64.5	64.5	59	49.8	0	0	---	0.00	30.042 
23:55	64.2	64.2	64.2	59	49.6	0	0	---	0.00	30.042 

CoCoRaHS
IN-AL-39
A2 Web Hosting
Creative Commons License
GoDaddy
search engine by freefind advanced

loaded 2018-11-17 18:47:46 • last modified 2010-11-18 10:43:29
Privacy PolicyDisclaimer
• wx.awcolley.com is powered by PmWiki v.2002016 •
• all content (unless otherwise noted) © 2018 A W Colley